sensor_id;sensor_type;location;lat;lon;timestamp;pressure;altitude;pressure_sealevel;temperature;humidity
22104;BME280;11218;48.886;9.426;2023-02-03T00:00:07;99265.50;;;6.15;84.45
22104;BME280;11218;48.886;9.426;2023-02-03T00:02:35;99264.28;;;6.18;84.42
22104;BME280;11218;48.886;9.426;2023-02-03T00:05:06;99259.19;;;6.23;83.07
22104;BME280;11218;48.886;9.426;2023-02-03T00:07:35;99260.78;;;6.17;84.57
22104;BME280;11218;48.886;9.426;2023-02-03T00:10:05;99259.75;;;6.18;84.18
22104;BME280;11218;48.886;9.426;2023-02-03T00:12:34;99261.81;;;6.16;84.27
22104;BME280;11218;48.886;9.426;2023-02-03T00:15:02;99262.94;;;6.29;83.45
22104;BME280;11218;48.886;9.426;2023-02-03T00:17:31;99268.22;;;6.22;83.63
22104;BME280;11218;48.886;9.426;2023-02-03T00:19:59;99270.78;;;6.30;83.63
22104;BME280;11218;48.886;9.426;2023-02-03T00:22:29;99273.25;;;6.32;84.33
22104;BME280;11218;48.886;9.426;2023-02-03T00:24:57;99267.91;;;6.32;84.31
22104;BME280;11218;48.886;9.426;2023-02-03T00:27:26;99271.53;;;6.24;84.40
22104;BME280;11218;48.886;9.426;2023-02-03T00:29:54;99261.16;;;6.36;82.96
22104;BME280;11218;48.886;9.426;2023-02-03T00:32:22;99265.63;;;6.29;83.95
22104;BME280;11218;48.886;9.426;2023-02-03T00:34:50;99270.78;;;6.30;83.86
22104;BME280;11218;48.886;9.426;2023-02-03T00:37:19;99262.81;;;6.37;83.67
22104;BME280;11218;48.886;9.426;2023-02-03T00:39:50;99277.97;;;6.30;84.33
22104;BME280;11218;48.886;9.426;2023-02-03T00:42:18;99281.28;;;6.32;84.39
22104;BME280;11218;48.886;9.426;2023-02-03T00:44:46;99288.91;;;6.35;84.26
22104;BME280;11218;48.886;9.426;2023-02-03T00:47:15;99294.84;;;6.30;83.95
22104;BME280;11218;48.886;9.426;2023-02-03T00:49:43;99290.31;;;6.31;84.03
22104;BME280;11218;48.886;9.426;2023-02-03T00:52:11;99289.69;;;6.29;83.81
22104;BME280;11218;48.886;9.426;2023-02-03T00:54:40;99295.22;;;6.27;85.46
22104;BME280;11218;48.886;9.426;2023-02-03T00:57:09;99277.19;;;6.36;83.60
22104;BME280;11218;48.886;9.426;2023-02-03T00:59:37;99266.44;;;6.29;84.54
22104;BME280;11218;48.886;9.426;2023-02-03T01:02:06;99275.75;;;6.33;83.69
22104;BME280;11218;48.886;9.426;2023-02-03T01:04:34;99280.50;;;6.38;83.57
22104;BME280;11218;48.886;9.426;2023-02-03T01:07:02;99288.91;;;6.35;83.64
22104;BME280;11218;48.886;9.426;2023-02-03T01:09:32;99283.75;;;6.33;83.98
22104;BME280;11218;48.886;9.426;2023-02-03T01:12:00;99267.28;;;6.30;85.15
22104;BME280;11218;48.886;9.426;2023-02-03T01:14:30;99254.53;;;6.32;85.29
22104;BME280;11218;48.886;9.426;2023-02-03T01:16:59;99240.53;;;6.30;84.89
22104;BME280;11218;48.886;9.426;2023-02-03T01:19:27;99242.75;;;6.26;85.26
22104;BME280;11218;48.886;9.426;2023-02-03T01:21:55;99246.84;;;6.22;85.16
22104;BME280;11218;48.886;9.426;2023-02-03T01:24:23;99246.41;;;6.18;84.75
22104;BME280;11218;48.886;9.426;2023-02-03T01:26:51;99256.91;;;6.20;85.03
22104;BME280;11218;48.886;9.426;2023-02-03T01:29:20;99264.66;;;6.15;85.81
22104;BME280;11218;48.886;9.426;2023-02-03T01:31:49;99255.00;;;6.14;86.17
22104;BME280;11218;48.886;9.426;2023-02-03T01:34:18;99251.09;;;6.16;84.79
22104;BME280;11218;48.886;9.426;2023-02-03T01:36:46;99241.25;;;6.17;85.78
22104;BME280;11218;48.886;9.426;2023-02-03T01:39:14;99233.59;;;6.14;84.81
22104;BME280;11218;48.886;9.426;2023-02-03T01:41:42;99230.38;;;6.18;84.59
22104;BME280;11218;48.886;9.426;2023-02-03T01:44:38;99238.00;;;6.21;84.93
22104;BME280;11218;48.886;9.426;2023-02-03T01:47:15;99228.25;;;6.14;85.77
22104;BME280;11218;48.886;9.426;2023-02-03T01:49:47;99247.59;;;6.16;85.45
22104;BME280;11218;48.886;9.426;2023-02-03T01:52:16;99238.81;;;6.22;84.71
22104;BME280;11218;48.886;9.426;2023-02-03T01:54:47;99255.81;;;6.14;84.78
22104;BME280;11218;48.886;9.426;2023-02-03T01:57:20;99249.31;;;6.23;84.26
22104;BME280;11218;48.886;9.426;2023-02-03T01:59:50;99250.91;;;6.18;83.73
22104;BME280;11218;48.886;9.426;2023-02-03T02:02:22;99237.31;;;6.13;84.46
22104;BME280;11218;48.886;9.426;2023-02-03T02:04:54;99225.78;;;6.12;84.64
22104;BME280;11218;48.886;9.426;2023-02-03T02:07:23;99226.34;;;6.08;84.32
22104;BME280;11218;48.886;9.426;2023-02-03T02:09:53;99216.69;;;6.07;84.53
22104;BME280;11218;48.886;9.426;2023-02-03T02:12:22;99215.47;;;6.09;84.56
22104;BME280;11218;48.886;9.426;2023-02-03T02:14:50;99201.28;;;6.09;85.01
22104;BME280;11218;48.886;9.426;2023-02-03T02:17:48;99178.50;;;6.13;84.93
22104;BME280;11218;48.886;9.426;2023-02-03T02:20:37;99168.00;;;6.11;84.17
22104;BME280;11218;48.886;9.426;2023-02-03T02:23:43;99156.03;;;6.07;84.90
22104;BME280;11218;48.886;9.426;2023-02-03T02:26:49;99170.22;;;6.08;85.03
22104;BME280;11218;48.886;9.426;2023-02-03T02:32:29;99159.47;;;6.01;85.52
22104;BME280;11218;48.886;9.426;2023-02-03T02:35:08;99148.53;;;5.96;85.46
22104;BME280;11218;48.886;9.426;2023-02-03T02:37:47;99130.47;;;5.98;85.12
22104;BME280;11218;48.886;9.426;2023-02-03T02:40:22;99124.50;;;5.96;86.34
22104;BME280;11218;48.886;9.426;2023-02-03T02:43:06;99139.31;;;5.99;85.62
22104;BME280;11218;48.886;9.426;2023-02-03T02:45:45;99174.66;;;5.94;85.47
22104;BME280;11218;48.886;9.426;2023-02-03T02:48:20;99174.25;;;5.97;85.79
22104;BME280;11218;48.886;9.426;2023-02-03T02:50:52;99189.25;;;5.98;85.63
22104;BME280;11218;48.886;9.426;2023-02-03T02:53:24;99189.66;;;5.95;86.61
22104;BME280;11218;48.886;9.426;2023-02-03T02:55:54;99193.56;;;5.92;85.86
22104;BME280;11218;48.886;9.426;2023-02-03T02:58:26;99187.41;;;5.99;86.30
22104;BME280;11218;48.886;9.426;2023-02-03T03:00:57;99177.34;;;5.94;86.33
22104;BME280;11218;48.886;9.426;2023-02-03T03:03:26;99166.41;;;5.96;86.60
22104;BME280;11218;48.886;9.426;2023-02-03T03:05:57;99148.72;;;5.94;86.38
22104;BME280;11218;48.886;9.426;2023-02-03T03:08:31;99133.53;;;5.95;86.41
22104;BME280;11218;48.886;9.426;2023-02-03T03:11:01;99145.88;;;5.96;86.46
22104;BME280;11218;48.886;9.426;2023-02-03T03:13:33;99148.13;;;5.92;86.87
22104;BME280;11218;48.886;9.426;2023-02-03T03:16:05;99153.06;;;5.96;86.04
22104;BME280;11218;48.886;9.426;2023-02-03T03:18:38;99145.47;;;5.92;86.86
22104;BME280;11218;48.886;9.426;2023-02-03T03:21:14;99149.19;;;5.98;86.88
22104;BME280;11218;48.886;9.426;2023-02-03T03:23:46;99147.53;;;5.97;87.11
22104;BME280;11218;48.886;9.426;2023-02-03T03:26:20;99157.81;;;5.93;86.97
22104;BME280;11218;48.886;9.426;2023-02-03T03:28:57;99158.63;;;5.94;87.30
22104;BME280;11218;48.886;9.426;2023-02-03T03:31:29;99169.09;;;5.96;86.61
22104;BME280;11218;48.886;9.426;2023-02-03T03:33:59;99180.59;;;5.96;86.49
22104;BME280;11218;48.886;9.426;2023-02-03T03:36:30;99184.09;;;5.97;87.13
22104;BME280;11218;48.886;9.426;2023-02-03T03:39:03;99170.38;;;6.00;87.38
22104;BME280;11218;48.886;9.426;2023-02-03T03:41:38;99189.25;;;5.98;86.14
22104;BME280;11218;48.886;9.426;2023-02-03T03:44:12;99188.25;;;5.99;87.03
22104;BME280;11218;48.886;9.426;2023-02-03T03:46:44;99202.63;;;5.98;86.54
22104;BME280;11218;48.886;9.426;2023-02-03T03:49:17;99208.78;;;6.20;85.75
22104;BME280;11218;48.886;9.426;2023-02-03T03:51:49;99207.91;;;6.13;86.36
22104;BME280;11218;48.886;9.426;2023-02-03T03:54:21;99212.34;;;6.06;85.71
22104;BME280;11218;48.886;9.426;2023-02-03T03:56:53;99215.22;;;6.04;86.26
22104;BME280;11218;48.886;9.426;2023-02-03T03:59:26;99226.72;;;6.05;86.23
22104;BME280;11218;48.886;9.426;2023-02-03T04:01:56;99232.72;;;6.07;86.50
22104;BME280;11218;48.886;9.426;2023-02-03T04:04:34;99235.84;;;6.10;85.96
22104;BME280;11218;48.886;9.426;2023-02-03T04:07:03;99229.91;;;6.15;86.40
22104;BME280;11218;48.886;9.426;2023-02-03T04:09:32;99233.78;;;6.12;86.33
22104;BME280;11218;48.886;9.426;2023-02-03T04:12:02;99232.34;;;6.10;86.93
22104;BME280;11218;48.886;9.426;2023-02-03T04:14:33;99223.94;;;6.13;85.70
22104;BME280;11218;48.886;9.426;2023-02-03T04:17:04;99221.00;;;6.08;86.25
22104;BME280;11218;48.886;9.426;2023-02-03T04:19:34;99216.69;;;6.07;86.51
22104;BME280;11218;48.886;9.426;2023-02-03T04:22:02;99223.03;;;6.06;86.90
22104;BME280;11218;48.886;9.426;2023-02-03T04:24:30;99227.75;;;6.04;87.04
22104;BME280;11218;48.886;9.426;2023-02-03T04:26:58;99229.78;;;6.02;86.39
22104;BME280;11218;48.886;9.426;2023-02-03T04:29:26;99232.28;;;6.03;87.33
22104;BME280;11218;48.886;9.426;2023-02-03T04:31:54;99221.31;;;5.98;87.72
22104;BME280;11218;48.886;9.426;2023-02-03T04:34:22;99208.59;;;6.00;88.35
22104;BME280;11218;48.886;9.426;2023-02-03T04:36:51;99210.00;;;5.96;88.38
22104;BME280;11218;48.886;9.426;2023-02-03T04:39:20;99209.59;;;5.92;88.47
22104;BME280;11218;48.886;9.426;2023-02-03T04:41:48;99200.56;;;5.93;88.59
22104;BME280;11218;48.886;9.426;2023-02-03T04:44:16;99200.94;;;5.90;89.28
22104;BME280;11218;48.886;9.426;2023-02-03T04:46:44;99217.16;;;5.89;89.25
22104;BME280;11218;48.886;9.426;2023-02-03T04:49:12;99216.28;;;5.88;88.70
22104;BME280;11218;48.886;9.426;2023-02-03T04:51:40;99214.00;;;5.85;89.66
22104;BME280;11218;48.886;9.426;2023-02-03T04:54:11;99194.47;;;5.85;89.02
22104;BME280;11218;48.886;9.426;2023-02-03T04:56:39;99192.25;;;5.88;89.72
22104;BME280;11218;48.886;9.426;2023-02-03T04:59:08;99186.66;;;5.83;89.44
22104;BME280;11218;48.886;9.426;2023-02-03T05:01:36;99200.00;;;5.83;89.42
22104;BME280;11218;48.886;9.426;2023-02-03T05:04:04;99202.22;;;5.80;90.26
22104;BME280;11218;48.886;9.426;2023-02-03T05:06:33;99197.66;;;5.74;91.28
22104;BME280;11218;48.886;9.426;2023-02-03T05:09:01;99203.81;;;5.74;90.37
22104;BME280;11218;48.886;9.426;2023-02-03T05:11:31;99207.88;;;5.70;91.53
22104;BME280;11218;48.886;9.426;2023-02-03T05:13:59;99208.44;;;5.66;91.39
22104;BME280;11218;48.886;9.426;2023-02-03T05:16:27;99207.50;;;5.73;92.05
22104;BME280;11218;48.886;9.426;2023-02-03T05:18:55;99210.09;;;5.67;91.90
22104;BME280;11218;48.886;9.426;2023-02-03T05:21:23;99205.78;;;5.66;91.67
22104;BME280;11218;48.886;9.426;2023-02-03T05:23:51;99200.81;;;5.63;92.16
22104;BME280;11218;48.886;9.426;2023-02-03T05:26:19;99196.94;;;5.65;92.00
22104;BME280;11218;48.886;9.426;2023-02-03T05:28:49;99204.50;;;5.61;93.05
22104;BME280;11218;48.886;9.426;2023-02-03T05:31:19;99213.97;;;5.64;92.94
22104;BME280;11218;48.886;9.426;2023-02-03T05:33:47;99208.38;;;5.59;93.45
22104;BME280;11218;48.886;9.426;2023-02-03T05:36:15;99212.06;;;5.58;93.81
22104;BME280;11218;48.886;9.426;2023-02-03T05:38:44;99231.78;;;5.57;93.02
22104;BME280;11218;48.886;9.426;2023-02-03T05:41:12;99226.50;;;5.64;93.46
22104;BME280;11218;48.886;9.426;2023-02-03T05:43:59;99226.88;;;5.60;93.50
22104;BME280;11218;48.886;9.426;2023-02-03T05:46:27;99232.22;;;5.60;93.51
22104;BME280;11218;48.886;9.426;2023-02-03T05:48:55;99235.97;;;5.66;94.40
22104;BME280;11218;48.886;9.426;2023-02-03T05:51:24;99217.66;;;5.63;94.43
22104;BME280;11218;48.886;9.426;2023-02-03T05:53:52;99189.50;;;5.60;93.96
22104;BME280;11218;48.886;9.426;2023-02-03T05:56:20;99187.53;;;5.69;93.38
22104;BME280;11218;48.886;9.426;2023-02-03T05:58:50;99177.88;;;5.68;93.62
22104;BME280;11218;48.886;9.426;2023-02-03T06:01:20;99189.13;;;5.64;93.87
22104;BME280;11218;48.886;9.426;2023-02-03T06:03:48;99201.66;;;5.63;94.67
22104;BME280;11218;48.886;9.426;2023-02-03T06:06:17;99210.84;;;5.60;93.93
22104;BME280;11218;48.886;9.426;2023-02-03T06:08:45;99203.94;;;5.66;94.20
22104;BME280;11218;48.886;9.426;2023-02-03T06:11:13;99196.13;;;5.65;95.25
22104;BME280;11218;48.886;9.426;2023-02-03T06:13:41;99194.47;;;5.64;94.53
22104;BME280;11218;48.886;9.426;2023-02-03T06:16:09;99193.63;;;5.63;95.40
22104;BME280;11218;48.886;9.426;2023-02-03T06:18:39;99184.78;;;5.63;94.17
22104;BME280;11218;48.886;9.426;2023-02-03T06:21:08;99201.25;;;5.66;94.92
22104;BME280;11218;48.886;9.426;2023-02-03T06:23:36;99203.88;;;5.59;94.59
22104;BME280;11218;48.886;9.426;2023-02-03T06:26:05;99203.88;;;5.59;94.81
22104;BME280;11218;48.886;9.426;2023-02-03T06:28:33;99204.06;;;5.58;94.71
22104;BME280;11218;48.886;9.426;2023-02-03T06:31:04;99197.69;;;5.59;94.79
22104;BME280;11218;48.886;9.426;2023-02-03T06:33:32;99199.91;;;5.55;95.14
22104;BME280;11218;48.886;9.426;2023-02-03T06:36:03;99198.06;;;5.56;95.18
22104;BME280;11218;48.886;9.426;2023-02-03T06:38:31;99196.22;;;5.56;95.84
22104;BME280;11218;48.886;9.426;2023-02-03T06:40:59;99178.38;;;5.57;95.57
22104;BME280;11218;48.886;9.426;2023-02-03T06:43:27;99182.31;;;5.61;95.71
22104;BME280;11218;48.886;9.426;2023-02-03T06:45:55;99167.31;;;5.60;95.40
22104;BME280;11218;48.886;9.426;2023-02-03T06:48:23;99172.00;;;5.58;95.49
22104;BME280;11218;48.886;9.426;2023-02-03T06:50:52;99166.28;;;5.61;95.38
22104;BME280;11218;48.886;9.426;2023-02-03T06:53:22;99161.50;;;5.56;95.40
22104;BME280;11218;48.886;9.426;2023-02-03T06:55:50;99151.28;;;5.60;94.72
22104;BME280;11218;48.886;9.426;2023-02-03T06:58:19;99151.09;;;5.61;95.27
22104;BME280;11218;48.886;9.426;2023-02-03T07:00:47;99161.78;;;5.61;95.32
22104;BME280;11218;48.886;9.426;2023-02-03T07:03:17;99161.13;;;5.59;93.91
22104;BME280;11218;48.886;9.426;2023-02-03T07:05:45;99172.06;;;5.65;94.87
22104;BME280;11218;48.886;9.426;2023-02-03T07:08:13;99162.78;;;5.60;94.55
22104;BME280;11218;48.886;9.426;2023-02-03T07:10:42;99164.25;;;5.63;94.94
22104;BME280;11218;48.886;9.426;2023-02-03T07:13:11;99155.59;;;5.61;94.78
22104;BME280;11218;48.886;9.426;2023-02-03T07:15:39;99162.22;;;5.65;94.97
22104;BME280;11218;48.886;9.426;2023-02-03T07:18:07;99168.78;;;5.63;94.36
22104;BME280;11218;48.886;9.426;2023-02-03T07:20:38;99160.56;;;5.64;93.97
22104;BME280;11218;48.886;9.426;2023-02-03T07:23:07;99155.22;;;5.64;94.73
22104;BME280;11218;48.886;9.426;2023-02-03T07:25:35;99162.41;;;5.64;94.12
22104;BME280;11218;48.886;9.426;2023-02-03T07:28:05;99166.47;;;5.59;94.70
22104;BME280;11218;48.886;9.426;2023-02-03T07:30:33;99156.63;;;5.60;94.35
22104;BME280;11218;48.886;9.426;2023-02-03T07:33:01;99167.19;;;5.68;94.12
22104;BME280;11218;48.886;9.426;2023-02-03T07:35:30;99164.25;;;5.63;94.46
22104;BME280;11218;48.886;9.426;2023-02-03T07:37:59;99168.00;;;5.69;93.44
22104;BME280;11218;48.886;9.426;2023-02-03T07:40:27;99175.38;;;5.67;93.61
22104;BME280;11218;48.886;9.426;2023-02-03T07:42:56;99186.44;;;5.64;94.62
22104;BME280;11218;48.886;9.426;2023-02-03T07:45:26;99193.06;;;5.68;93.87
22104;BME280;11218;48.886;9.426;2023-02-03T07:47:54;99201.91;;;5.68;94.22
22104;BME280;11218;48.886;9.426;2023-02-03T07:50:23;99207.81;;;5.64;93.98
22104;BME280;11218;48.886;9.426;2023-02-03T07:52:52;99200.19;;;5.60;93.75
22104;BME280;11218;48.886;9.426;2023-02-03T07:55:21;99198.34;;;5.61;93.91
22104;BME280;11218;48.886;9.426;2023-02-03T07:57:52;99208.63;;;5.64;93.71
22104;BME280;11218;48.886;9.426;2023-02-03T08:00:20;99219.59;;;5.69;92.25
22104;BME280;11218;48.886;9.426;2023-02-03T08:02:50;99229.81;;;5.66;93.55
22104;BME280;11218;48.886;9.426;2023-02-03T08:05:19;99228.34;;;5.63;92.69
22104;BME280;11218;48.886;9.426;2023-02-03T08:07:47;99215.63;;;5.65;92.97
22104;BME280;11218;48.886;9.426;2023-02-03T08:10:15;99242.16;;;5.67;92.84
22104;BME280;11218;48.886;9.426;2023-02-03T08:12:44;99245.84;;;5.66;93.27
22104;BME280;11218;48.886;9.426;2023-02-03T08:15:13;99229.25;;;5.70;93.47
22104;BME280;11218;48.886;9.426;2023-02-03T08:17:43;99217.09;;;5.68;93.76
22104;BME280;11218;48.886;9.426;2023-02-03T08:20:13;99218.31;;;5.65;94.10
22104;BME280;11218;48.886;9.426;2023-02-03T08:22:42;99231.66;;;5.65;93.74
22104;BME280;11218;48.886;9.426;2023-02-03T08:25:11;99231.72;;;5.72;93.29
22104;BME280;11218;48.886;9.426;2023-02-03T08:27:40;99229.25;;;5.70;93.18
22104;BME280;11218;48.886;9.426;2023-02-03T08:30:11;99222.31;;;5.76;93.94
22104;BME280;11218;48.886;9.426;2023-02-03T08:32:40;99211.06;;;5.80;92.81
22104;BME280;11218;48.886;9.426;2023-02-03T08:35:08;99207.50;;;5.73;94.14
22104;BME280;11218;48.886;9.426;2023-02-03T08:37:38;99224.34;;;5.74;93.13
22104;BME280;11218;48.886;9.426;2023-02-03T08:40:07;99232.63;;;5.79;93.04
22104;BME280;11218;48.886;9.426;2023-02-03T08:42:36;99250.16;;;5.67;94.05
22104;BME280;11218;48.886;9.426;2023-02-03T08:45:06;99263.34;;;5.68;94.42
22104;BME280;11218;48.886;9.426;2023-02-03T08:47:34;99248.50;;;5.66;93.81
22104;BME280;11218;48.886;9.426;2023-02-03T08:50:07;99228.34;;;5.63;94.42
22104;BME280;11218;48.886;9.426;2023-02-03T08:52:35;99239.75;;;5.72;93.65
22104;BME280;11218;48.886;9.426;2023-02-03T08:55:05;99234.41;;;5.72;93.80
22104;BME280;11218;48.886;9.426;2023-02-03T08:57:35;99234.84;;;5.75;93.71
22104;BME280;11218;48.886;9.426;2023-02-03T09:00:04;99250.63;;;5.70;94.68
22104;BME280;11218;48.886;9.426;2023-02-03T09:02:33;99245.72;;;5.74;94.75
22104;BME280;11218;48.886;9.426;2023-02-03T09:05:01;99237.78;;;5.80;94.69
22104;BME280;11218;48.886;9.426;2023-02-03T09:07:29;99229.78;;;5.80;94.86
22104;BME280;11218;48.886;9.426;2023-02-03T09:09:58;99225.06;;;5.82;93.99
22104;BME280;11218;48.886;9.426;2023-02-03T09:12:28;99218.06;;;5.81;94.73
22104;BME280;11218;48.886;9.426;2023-02-03T09:14:56;99222.94;;;5.92;94.38
22104;BME280;11218;48.886;9.426;2023-02-03T09:17:24;99212.06;;;5.94;94.23
22104;BME280;11218;48.886;9.426;2023-02-03T09:19:54;99213.50;;;5.97;93.88
22104;BME280;11218;48.886;9.426;2023-02-03T09:22:22;99232.84;;;5.99;94.97
22104;BME280;11218;48.886;9.426;2023-02-03T09:24:50;99231.44;;;6.03;94.25
22104;BME280;11218;48.886;9.426;2023-02-03T09:27:18;99237.75;;;6.16;93.94
22104;BME280;11218;48.886;9.426;2023-02-03T09:29:48;99250.09;;;6.17;94.25
22104;BME280;11218;48.886;9.426;2023-02-03T09:32:16;99240.66;;;6.21;94.69
22104;BME280;11218;48.886;9.426;2023-02-03T09:34:44;99238.19;;;6.20;94.33
22104;BME280;11218;48.886;9.426;2023-02-03T09:37:12;99235.00;;;6.31;94.28
22104;BME280;11218;48.886;9.426;2023-02-03T09:39:40;99218.13;;;6.31;94.83
22104;BME280;11218;48.886;9.426;2023-02-03T09:42:32;99216.72;;;6.35;93.74
22104;BME280;11218;48.886;9.426;2023-02-03T09:45:13;99219.22;;;6.36;94.32
22104;BME280;11218;48.886;9.426;2023-02-03T09:47:45;99215.31;;;6.39;94.47
22104;BME280;11218;48.886;9.426;2023-02-03T09:50:20;99225.19;;;6.38;94.43
22104;BME280;11218;48.886;9.426;2023-02-03T09:52:50;99221.28;;;6.41;94.51
22104;BME280;11218;48.886;9.426;2023-02-03T09:55:27;99213.66;;;6.38;93.66
22104;BME280;11218;48.886;9.426;2023-02-03T09:58:02;99217.47;;;6.50;94.05
22104;BME280;11218;48.886;9.426;2023-02-03T10:00:34;99207.34;;;6.45;93.85
22104;BME280;11218;48.886;9.426;2023-02-03T10:03:07;99202.88;;;6.52;93.86
22104;BME280;11218;48.886;9.426;2023-02-03T10:05:50;99206.44;;;6.59;93.16
22104;BME280;11218;48.886;9.426;2023-02-03T10:08:27;99199.66;;;6.64;93.64
22104;BME280;11218;48.886;9.426;2023-02-03T10:11:00;99193.94;;;6.67;92.81
22104;BME280;11218;48.886;9.426;2023-02-03T10:13:52;99216.00;;;6.82;92.25
22104;BME280;11218;48.886;9.426;2023-02-03T10:16:44;99225.19;;;7.01;91.48
22104;BME280;11218;48.886;9.426;2023-02-03T10:19:19;99221.53;;;7.08;91.10
22104;BME280;11218;48.886;9.426;2023-02-03T10:21:51;99216.81;;;7.10;92.08
22104;BME280;11218;48.886;9.426;2023-02-03T10:24:25;99217.22;;;7.14;91.30
22104;BME280;11218;48.886;9.426;2023-02-03T10:26:54;99223.81;;;7.11;91.32
22104;BME280;11218;48.886;9.426;2023-02-03T10:29:28;99225.06;;;7.15;90.79
22104;BME280;11218;48.886;9.426;2023-02-03T10:32:00;99232.09;;;7.23;89.49
22104;BME280;11218;48.886;9.426;2023-02-03T10:34:29;99229.81;;;7.20;89.51
22104;BME280;11218;48.886;9.426;2023-02-03T10:37:01;99229.44;;;7.23;90.44
22104;BME280;11218;48.886;9.426;2023-02-03T10:39:40;99226.97;;;7.28;89.13
22104;BME280;11218;48.886;9.426;2023-02-03T10:42:11;99212.34;;;7.24;90.06
22104;BME280;11218;48.886;9.426;2023-02-03T10:44:42;99203.28;;;7.25;90.23
22104;BME280;11218;48.886;9.426;2023-02-03T10:47:26;99211.69;;;7.15;90.09
22104;BME280;11218;48.886;9.426;2023-02-03T10:49:57;99207.75;;;7.11;91.05
22104;BME280;11218;48.886;9.426;2023-02-03T10:52:28;99212.91;;;7.13;91.83
22104;BME280;11218;48.886;9.426;2023-02-03T10:55:04;99212.94;;;7.19;91.16
22104;BME280;11218;48.886;9.426;2023-02-03T10:57:35;99216.66;;;7.25;91.51
22104;BME280;11218;48.886;9.426;2023-02-03T11:00:19;99204.06;;;7.19;91.00
22104;BME280;11218;48.886;9.426;2023-02-03T11:02:56;99192.78;;;7.23;91.30
22104;BME280;11218;48.886;9.426;2023-02-03T11:05:26;99181.00;;;7.18;92.29
22104;BME280;11218;48.886;9.426;2023-02-03T11:07:54;99194.41;;;7.24;91.80
22104;BME280;11218;48.886;9.426;2023-02-03T11:10:32;99201.69;;;7.37;89.40
22104;BME280;11218;48.886;9.426;2023-02-03T11:13:19;99180.47;;;7.42;88.25
22104;BME280;11218;48.886;9.426;2023-02-03T11:15:53;99162.94;;;7.46;88.27
22104;BME280;11218;48.886;9.426;2023-02-03T11:18:34;99159.25;;;7.47;87.21
22104;BME280;11218;48.886;9.426;2023-02-03T11:21:09;99166.06;;;7.50;86.95
22104;BME280;11218;48.886;9.426;2023-02-03T11:23:44;99159.66;;;7.51;87.34
22104;BME280;11218;48.886;9.426;2023-02-03T11:26:14;99169.53;;;7.44;88.61
22104;BME280;11218;48.886;9.426;2023-02-03T11:28:45;99158.25;;;7.55;88.15
22104;BME280;11218;48.886;9.426;2023-02-03T11:31:17;99159.66;;;7.51;87.78
22104;BME280;11218;48.886;9.426;2023-02-03T11:33:51;99163.56;;;7.48;87.05
22104;BME280;11218;48.886;9.426;2023-02-03T11:36:21;99168.13;;;7.54;85.75
22104;BME280;11218;48.886;9.426;2023-02-03T11:39:15;99165.66;;;7.53;86.46
22104;BME280;11218;48.886;9.426;2023-02-03T11:41:44;99165.03;;;7.57;85.87
22104;BME280;11218;48.886;9.426;2023-02-03T11:44:22;99151.03;;;7.62;84.59
22104;BME280;11218;48.886;9.426;2023-02-03T11:46:55;99152.28;;;7.59;85.13
22104;BME280;11218;48.886;9.426;2023-02-03T12:03:10;99151.25;;;7.61;83.65
22104;BME280;11218;48.886;9.426;2023-02-03T12:05:57;99136.19;;;7.59;83.29
22104;BME280;11218;48.886;9.426;2023-02-03T12:08:39;99116.63;;;7.59;82.25
22104;BME280;11218;48.886;9.426;2023-02-03T12:11:21;99128.56;;;7.56;83.62
22104;BME280;11218;48.886;9.426;2023-02-03T12:14:16;99133.72;;;7.58;83.08
22104;BME280;11218;48.886;9.426;2023-02-03T12:17:02;99138.66;;;7.61;82.53
22104;BME280;11218;48.886;9.426;2023-02-03T12:19:45;99147.94;;;7.58;83.32
22104;BME280;11218;48.886;9.426;2023-02-03T12:22:24;99140.94;;;7.64;82.03
22104;BME280;11218;48.886;9.426;2023-02-03T12:24:59;99122.59;;;7.61;82.71
22104;BME280;11218;48.886;9.426;2023-02-03T12:27:40;99135.19;;;7.67;81.97
22104;BME280;11218;48.886;9.426;2023-02-03T12:30:20;99123.84;;;7.72;81.11
22104;BME280;11218;48.886;9.426;2023-02-03T12:32:53;99106.94;;;7.71;81.35
22104;BME280;11218;48.886;9.426;2023-02-03T12:35:26;99109.22;;;7.74;81.16
22104;BME280;11218;48.886;9.426;2023-02-03T12:38:02;99092.53;;;7.72;81.83
22104;BME280;11218;48.886;9.426;2023-02-03T12:40:35;99084.69;;;7.71;81.58
22104;BME280;11218;48.886;9.426;2023-02-03T12:43:18;99081.16;;;7.64;82.08
22104;BME280;11218;48.886;9.426;2023-02-03T12:45:53;99089.44;;;7.75;80.02
22104;BME280;11218;48.886;9.426;2023-02-03T12:48:24;99082.00;;;7.71;80.62
22104;BME280;11218;48.886;9.426;2023-02-03T12:50:59;99066.13;;;7.69;81.31
22104;BME280;11218;48.886;9.426;2023-02-03T12:53:32;99063.66;;;7.68;81.24
22104;BME280;11218;48.886;9.426;2023-02-03T12:56:04;99063.25;;;7.71;81.33
22104;BME280;11218;48.886;9.426;2023-02-03T12:58:39;99064.28;;;7.70;80.68
22104;BME280;11218;48.886;9.426;2023-02-03T13:01:12;99063.44;;;7.76;79.81
22104;BME280;11218;48.886;9.426;2023-02-03T13:03:47;99069.22;;;7.73;80.52
22104;BME280;11218;48.886;9.426;2023-02-03T13:06:23;99064.06;;;7.71;80.59
22104;BME280;11218;48.886;9.426;2023-02-03T13:08:59;99061.81;;;7.68;81.03
22104;BME280;11218;48.886;9.426;2023-02-03T13:11:32;99065.50;;;7.67;81.34
22104;BME280;11218;48.886;9.426;2023-02-03T13:14:08;99067.78;;;7.64;80.94
22104;BME280;11218;48.886;9.426;2023-02-03T13:16:43;99052.53;;;7.64;81.93
22104;BME280;11218;48.886;9.426;2023-02-03T13:19:17;99045.94;;;7.67;81.02
22104;BME280;11218;48.886;9.426;2023-02-03T13:21:49;99037.47;;;7.63;80.54
22104;BME280;11218;48.886;9.426;2023-02-03T13:24:20;99036.44;;;7.64;81.34
22104;BME280;11218;48.886;9.426;2023-02-03T13:27:07;99045.53;;;7.63;80.94
22104;BME280;11218;48.886;9.426;2023-02-03T13:29:51;99041.19;;;7.62;81.52
22104;BME280;11218;48.886;9.426;2023-02-03T13:32:43;99038.31;;;7.64;80.84
22104;BME280;11218;48.886;9.426;2023-02-03T13:35:29;99031.72;;;7.66;80.61
22104;BME280;11218;48.886;9.426;2023-02-03T13:38:17;99030.47;;;7.69;80.15
22104;BME280;11218;48.886;9.426;2023-02-03T13:40:57;99021.81;;;7.73;79.61
22104;BME280;11218;48.886;9.426;2023-02-03T13:43:29;99013.56;;;7.68;80.31
22104;BME280;11218;48.886;9.426;2023-02-03T13:46:07;99000.78;;;7.70;79.93
22104;BME280;11218;48.886;9.426;2023-02-03T13:48:48;99001.81;;;7.69;79.31
22104;BME280;11218;48.886;9.426;2023-02-03T13:51:20;99002.25;;;7.66;79.97